x

9449880 - Friday Harbor, Wa (frdw1) Weather Station

1:36 - Sun 31st Jul 2016 All times are PDT. -7 hours from GMT.

  • Wind
    1mph, 3mph gusts
  • Sea Temp 57°f
  • Luft Temp 55°f
  • Sea Pressure 1014.1mb
  • 9449880 - Friday Harbor, Wa
  • 9449880 - Friday Harbor, Wa

More Historic Weather Station data

Upgrade to MSW Pro to gain access to the past 30 days of data for over 8000 Wavebouys and Weather Stations around the globe.

Join Pro

Comparision Forecast

View Surf forecast
   
So 07/31 1:36 1 3 mph 1014.1mb 57f 55f
1:30 2 3 mph 1014.1mb 57f 55f
1:24  -  2 mph 1014.1mb 57f 55f
1:18 1
mph
1014.1mb 57f 55f
1:12  -  1 mph 1014.2mb 57f 55f
1:06  -  1 mph 1014.2mb 57f 55f
1:00  -  1 mph 1014.1mb 57f 55f
12:36  -  2 mph 1014.1mb 57f 55f
12:30 1 2 mph 1014mb 57f 56f
12:24 1 2 mph 1014mb 57f 56f
12:18  -  1 mph 1014mb 57f 56f
12:12  -  2 mph 1014mb 58f 56f
12:06 2 3 mph 1013.9mb 58f 56f
12:00  -  1 mph 1014mb 58f 56f
Sa 07/30 11:36 2 3 mph 1013.8mb 58f 57f
11:30 2 3 mph 1013.8mb 58f 56f
11:24 3
mph
1013.8mb 58f 57f
11:18 1 2 mph 1013.8mb 58f 56f
11:12 2 3 mph 1013.8mb 58f 57f
11:06 1 3 mph 1013.8mb 58f 57f
11:00 1 2 mph 1013.8mb 58f 57f
10:36  -  3 mph 1013.7mb 58f 57f
10:30 2 3 mph 1013.6mb 58f 58f
10:24 3 6 mph 1013.5mb 58f 58f
10:18 6 7 mph 1013.5mb 58f 58f
10:12 6 7 mph 1013.4mb 58f 58f
10:06 7
mph
1013.5mb 58f 58f
10:00 7
mph
1013.4mb 58f 58f
9:36 9 11 mph 1013.3mb 58f 60f
9:30 9 11 mph 1013.4mb 58f 61f
9:24 7 9 mph 1013.3mb 58f 61f
9:18 8 10 mph 1013.3mb 58f 62f
9:12 9 10 mph 1013.2mb 58f 63f
9:06 8 10 mph 1013.2mb 58f 63f
9:00 6 9 mph 1013.1mb 58f 63f
8:36 9 10 mph 1013mb 58f 64f
8:30 8 9 mph 1013mb 58f 64f
8:24 7 9 mph 1013mb 58f 65f
8:18 8 11 mph 1013mb 58f 65f
8:12 10 15 mph 1013mb 58f 65f
8:06 10 13 mph 1013mb 58f 66f
8:00 10 13 mph 1013mb 58f 66f
7:36 7 8 mph 1013.1mb 58f 67f
7:30 6 10 mph 1013.1mb 58f 67f
7:24 10 14 mph 1013.1mb 58f 67f
7:18 9 11 mph 1013.1mb 58f 67f
7:12 8 11 mph 1013.1mb 58f 67f
7:06 7 8 mph 1013.1mb 58f 68f
7:00 8 10 mph 1013.1mb 58f 67f
6:36 8 10 mph 1013.3mb 58f 68f
6:30 8 10 mph 1013.3mb 57f 68f
6:24 6 8 mph 1013.3mb 57f 67f
6:18 2 6 mph 1013.3mb 57f 68f
6:12 3 6 mph 1013.3mb 57f 69f
6:06 6 7 mph 1013.3mb 57f 69f
6:00 6 7 mph 1013.3mb 57f 69f
5:36 7 9 mph 1013.3mb 57f 69f
5:30 6 8 mph 1013.4mb 57f 69f
5:24 7 8 mph 1013.4mb 56f 69f
5:18 8 9 mph 1013.5mb 56f 68f
5:12 7 9 mph 1013.5mb 56f 68f
5:06 8 10 mph 1013.5mb 57f 68f
5:00 7 11 mph 1013.5mb 57f 68f
4:36 8 10 mph 1013.6mb 56f 68f
4:30 8 10 mph 1013.6mb 56f 69f
4:24 8 14 mph 1013.7mb 56f 68f
4:18 9 13 mph 1013.7mb 56f 68f
4:12 7 11 mph 1013.7mb 56f 69f
4:06 9 11 mph 1013.7mb 57f 68f
4:00 8 13 mph 1013.8mb 57f 69f
3:36 6 9 mph 1013.9mb 57f 68f
3:30 7 10 mph 1013.9mb 56f 68f
3:24 8 10 mph 1013.9mb 54f 68f
3:18 8 11 mph 1014mb 53f 67f
3:12 8 10 mph 1014mb 54f 67f
3:06 7 10 mph 1014mb 56f 67f
3:00 8 10 mph 1014.1mb 57f 67f
2:36 6 9 mph 1014.1mb 55f 67f
2:30 7 10 mph 1014.1mb 55f 67f
2:24 7 11 mph 1014.2mb 55f 67f
2:18 8 10 mph 1014.2mb 55f 66f
2:12 8 11 mph 1014.2mb 58f 66f
2:06 7 11 mph 1014.2mb 58f 66f
2:00 9 11 mph 1014.2mb 58f 66f
1:36 9 15 mph 1014.3mb 58f 65f
1:30 11 14 mph 1014.3mb 58f 65f
1:24 9 14 mph 1014.3mb 58f 64f
1:18 9 15 mph 1014.4mb 57f 64f
1:12 11 15 mph 1014.3mb 57f 64f
1:06 10 14 mph 1014.3mb 57f 64f
1:00 9 14 mph 1014.3mb 57f 64f
12:36 9 13 mph 1014.4mb 57f 64f
12:30 9 13 mph 1014.4mb 56f 63f
12:24 9 13 mph 1014.4mb 56f 63f
12:18 9 11 mph 1014.4mb 56f 63f
12:12 8 11 mph 1014.4mb 57f 63f
12:06 8 14 mph 1014.5mb 57f 63f
12:00 9 13 mph 1014.5mb 57f 63f
11:36 8 11 mph 1014.5mb 57f 62f
11:30 10 13 mph 1014.5mb 58f 62f
11:24 9 13 mph 1014.5mb 58f 62f
11:18 8 13 mph 1014.5mb 58f 62f
11:12 9 13 mph 1014.4mb 58f 62f
11:06 9 14 mph 1014.4mb 58f 62f
11:00 10 14 mph 1014.3mb 58f 61f
10:36 9 14 mph 1014.2mb 56f 61f
10:30 9 15 mph 1014.3mb 57f 61f
10:24 9 16 mph 1014.2mb 57f 61f
10:18 8 15 mph 1014.2mb 56f 60f
10:12 9 13 mph 1014.2mb 56f 60f
10:06 8 15 mph 1014.1mb 56f 60f
10:00 10 14 mph 1014.2mb 56f 60f
9:36 7 9 mph 1014.2mb 56f 59f
9:30 7 10 mph 1014.1mb 56f 59f
9:24 7 9 mph 1014.1mb 56f 59f
9:18 7 9 mph 1014.1mb 56f 59f
9:12 6 8 mph 1014.1mb 56f 58f
9:06 5 6 mph 1014.1mb 56f 58f
9:00 6 7 mph 1014.1mb 56f 58f
8:36 5 6 mph - - 57f
8:30 5 7 mph - - 57f
8:24 6 7 mph 1013.8mb 56f 56f
8:18 5 7 mph 1013.7mb 56f 57f
8:12 2 3 mph 1013.7mb 56f 57f
8:06 2
mph
1013.7mb 56f 57f
8:00 2 3 mph 1013.7mb 56f 56f
7:36 6 7 mph 1013.6mb 56f 55f
7:30 6 7 mph 1013.6mb 56f 55f
7:24 6
mph
1013.5mb 56f 54f
7:18 5 6 mph 1013.6mb 56f 54f
7:12 3 5 mph 1013.6mb 56f 54f
7:06 5
mph
1013.5mb 56f 54f
7:00 3 5 mph 1013.5mb 56f 54f
6:36 6 7 mph 1013.4mb 56f 53f
6:30 5 7 mph 1013.2mb 56f 53f
6:24 6 7 mph 1013.2mb 56f 53f
6:18 2 6 mph 1013.2mb 56f 53f
6:12 6 7 mph 1013.2mb 56f 53f
6:06 2 6 mph 1013.1mb 56f 53f
6:00 6 7 mph 1013mb 56f 53f
5:36 3 6 mph 1012.9mb 56f 53f
5:30 3 6 mph 1012.8mb 56f 53f
5:24 5 6 mph 1012.9mb 56f 53f
5:18 3 7 mph 1012.9mb 56f 53f
5:12 5 6 mph 1012.8mb 56f 53f
5:06 3 5 mph 1012.8mb 56f 53f
5:00 3 8 mph 1012.8mb 56f 53f
4:36 3 6 mph 1012.6mb 56f 53f
4:30 5 8 mph 1012.6mb 56f 54f
4:24 3 6 mph 1012.6mb 56f 54f
4:18 6 7 mph 1012.6mb 56f 54f
4:12 2 6 mph 1012.6mb 56f 54f
4:06 3 6 mph 1012.6mb 56f 54f
4:00 5 6 mph 1012.6mb 56f 54f
3:36 6 7 mph 1012.4mb 56f 55f
3:30 5 9 mph 1012.4mb 56f 55f
3:24 7 9 mph 1012.4mb 56f 55f
3:18 6 8 mph 1012.4mb 56f 55f
3:12 7 8 mph 1012.4mb 56f 55f
3:06 7 8 mph 1012.4mb 56f 55f
3:00 7 8 mph 1012.3mb 56f 55f
2:54 6 7 mph 1012.4mb 56f 55f
2:48 3 6 mph 1012.3mb 56f 55f
2:36 3 6 mph 1012.3mb 56f 55f
2:30 3 6 mph 1012.3mb 56f 55f
2:24 3 6 mph 1012.3mb 56f 56f
2:18 1 2 mph 1012.3mb 56f 56f
2:12  -  1 mph 1012.4mb 56f 56f
2:06  -  1 mph 1012.4mb 56f 56f
2:00  -  2 mph 1012.4mb 56f 56f
1:54 2
mph
1012.3mb 56f 56f
1:48 1 2 mph 1012.4mb 56f 56f
1:36  -  1 mph 1012.4mb 56f 56f
1:30  -  1 mph 1012.4mb 56f 56f
1:24 1 2 mph 1012.4mb 56f 56f
1:18  -  1 mph 1012.4mb 56f 56f
1:12  -  1 mph 1012.4mb 56f 56f
1:06  -  mph 1012.3mb 56f 56f
1:00  -  3 mph 1012.3mb 56f 56f
12:54 3
mph
1012.3mb 56f 56f
12:48  -  1 mph 1012.2mb 56f 56f
12:36  -  1 mph 1012.3mb 56f 55f
12:30  -  1 mph 1012.3mb 56f 56f
12:24 1 2 mph 1012.3mb 56f 56f
12:18  -  2 mph 1012.2mb 56f 56f
12:12  -  2 mph 1012.2mb 56f 56f
12:06 1 2 mph 1012.2mb 56f 56f
12:00  -  1 mph 1012.2mb 56f 56f
Fr 07/29 11:54 1 3 mph 1012.2mb 56f 56f
11:48 3
mph
1012.1mb 56f 56f
11:36  -  2 mph 1012.1mb 56f 57f
11:30 2
mph
1012.1mb 56f 57f
11:24 2 3 mph 1012.1mb 56f 57f
11:18 3
mph
1012.2mb 56f 57f
11:12 3 6 mph 1012.2mb 56f 57f
11:06 5
mph
1012.2mb 56f 57f
11:00 5
mph
1012.2mb 56f 57f
10:54 3 5 mph 1012.3mb 56f 57f
10:48 5
mph
1012.2mb 56f 57f
10:36 5
mph
1012.3mb 57f 57f
10:30 3
mph
1012.3mb 57f 57f
10:24 1 5 mph 1012.3mb 57f 57f
10:18 2 5 mph 1012.3mb 57f 57f
10:12 5 6 mph 1012.2mb 57f 57f
10:06 5 6 mph 1012.2mb 57f 57f
10:00 6
mph
1012.2mb 57f 57f
9:54 6 7 mph 1012.3mb 57f 57f
9:48 6
mph
1012.3mb 57f 57f
9:36 7
mph
1012.2mb 56f 57f
9:30 6 7 mph 1012.2mb 56f 57f
9:24 6 7 mph 1012.2mb 56f 57f
9:18 6 7 mph 1012.2mb 56f 58f
9:12 6
mph
1012.2mb 56f 58f
9:06 6
mph
1012.3mb 56f 58f
9:00 1 3 mph 1012.3mb 56f 59f
8:54 3
mph
1012.2mb 56f 59f
8:48 2 3 mph 1012.2mb 56f 60f
8:36 3 6 mph 1012.2mb 57f 61f
8:30 5 6 mph 1012.2mb 57f 62f
8:24 5 6 mph 1012.2mb 57f 62f
8:18 6 7 mph 1012.1mb 57f 62f
8:12 7 8 mph 1012.1mb 57f 64f
8:06 7
mph
1012.1mb 57f 65f
8:00 5 7 mph 1012.2mb 57f 65f
7:54 3 5 mph 1012.3mb 57f 68f
7:48 3 7 mph 1012.3mb 57f 68f
7:36 8 10 mph 1012.5mb 57f 69f
7:30 8 10 mph 1012.5mb 58f 69f
7:24 9 10 mph 1012.5mb 58f 70f
7:18 9 10 mph 1012.5mb 58f 71f
7:12 8 9 mph 1012.5mb 58f 72f
7:06 8 14 mph 1012.5mb 58f 73f
7:00 8 11 mph 1012.6mb 58f 73f
6:54 10 13 mph 1012.6mb 58f 73f
6:48 10 11 mph 1012.7mb 57f 73f
6:36 5 8 mph 1012.7mb 57f 72f
6:30 6 9 mph 1012.7mb 57f 73f
6:24 9 10 mph 1012.8mb 57f 73f
6:18 9 10 mph 1012.9mb 57f 74f
6:12 9 10 mph 1013mb 57f 74f
6:06 5 7 mph 1013mb 57f 73f
6:00 2 3 mph 1013mb 57f 74f
5:54 2 5 mph 1013mb 57f 74f
5:48 3 6 mph 1013mb 57f 73f
5:36 2 3 mph 1013.1mb 57f 72f
5:30 2
mph
1013.2mb 57f 70f
5:24  -  3 mph 1013.3mb 57f 71f
5:18 3 5 mph 1013.4mb 57f 74f
5:12 2
mph
1013.5mb 57f 73f
5:06 1 2 mph 1013.5mb 57f 74f
5:00 2
mph
1013.6mb 57f 72f
4:54 1 3 mph 1013.7mb 57f 73f
4:48 3
mph
1013.7mb 57f 71f
4:36 2 3 mph 1013.7mb 56f 71f
4:30 3 6 mph 1013.8mb 56f 71f
4:24 6 7 mph 1013.7mb 56f 71f
4:18 5 6 mph 1013.8mb 56f 75f
4:12  -  5 mph 1013.9mb 55f 76f
4:06 3 8 mph 1013.9mb 55f 75f
4:00 6 9 mph 1013.9mb 55f 75f
3:54 9 13 mph 1013.9mb 56f 74f
3:48 8 13 mph 1013.9mb 56f 75f
3:36 8 13 mph 1014mb 56f 74f
3:30 9 14 mph 1014mb 56f 74f
3:24 10 15 mph 1014.1mb 56f 74f
3:18 8 13 mph 1014.2mb 56f 74f
3:12 9 13 mph 1014.2mb 55f 74f
3:06 10 13 mph 1014.3mb 55f 73f
3:00 9 13 mph 1014.3mb 56f 74f
2:54 8 11 mph 1014.5mb 56f 74f
2:48 8 11 mph 1014.5mb 55f 74f
2:36 6 10 mph 1014.6mb 55f 76f
2:30 7 10 mph 1014.7mb 56f 75f
2:24 7 10 mph 1014.7mb 57f 75f
2:18 5 8 mph 1014.6mb 57f 76f
2:12 5 9 mph 1014.7mb 56f 75f
2:06 7 11 mph 1014.8mb 56f 74f
2:00 7 10 mph 1014.8mb 56f 74f
1:54 7 11 mph 1014.9mb 56f 74f
1:48 5 9 mph 1014.9mb 56f 74f
1:36 8 10 mph 1015.1mb 54f 73f
1:30 7 9 mph 1015.1mb 55f 73f
1:24 3 8 mph 1015.2mb 55f 73f
1:18 3 7 mph 1015.3mb 55f 73f
1:12 2 7 mph 1015.4mb 55f 73f
1:06 2 8 mph 1015.4mb 55f 72f
1:00 5 9 mph 1015.4mb 55f 72f
12:54 6 9 mph 1015.4mb 55f 72f
12:48 5 8 mph 1015.5mb 55f 73f
12:36 5 8 mph 1015.6mb 55f 73f
12:30 3 8 mph 1015.6mb 55f 73f
12:24 6 11 mph 1015.7mb 55f 72f
12:18 5 9 mph 1015.7mb 55f 72f
12:12 5 9 mph 1015.7mb 55f 72f
12:06 6 11 mph 1015.8mb 55f 71f
12:00 6 11 mph 1015.7mb 55f 71f
11:36 8 14 mph 1016mb 54f 70f
11:30 9 11 mph 1016mb 54f 70f
11:24 9 14 mph 1016.1mb 54f 69f
11:18 10 13 mph 1016.1mb 54f 70f
11:12 8 13 mph 1016.1mb 55f 70f
11:06 7 13 mph 1016.1mb 55f 69f
11:00 7 9 mph 1016.2mb 56f 70f
10:54 5 10 mph 1016.2mb 56f 70f
10:48 7 10 mph 1016.2mb 56f 70f
10:36 6 10 mph 1016.3mb 56f 70f
10:30 6 9 mph 1016.3mb 56f 69f
10:24 7 13 mph 1016.3mb 56f 69f
10:18 7 13 mph 1016.3mb 56f 70f
10:12 6 10 mph 1016.4mb 56f 69f
10:06 7 14 mph 1016.4mb 56f 69f
10:00 5 10 mph 1016.5mb 56f 70f
9:54 5 11 mph 1016.4mb 56f 70f
9:48 5 10 mph 1016.5mb 56f 69f
9:36 6 10 mph 1016.4mb 56f 69f
9:30 5 11 mph 1016.5mb 56f 69f
9:24 8 11 mph 1016.5mb 55f 68f
9:18 6 9 mph 1016.5mb 55f 66f
9:12 6 8 mph 1016.6mb 55f 65f
9:06 3 6 mph 1016.7mb 55f 62f
9:00 2 3 mph 1016.6mb 55f 60f
8:54 2 3 mph 1016.6mb 55f 59f
8:48 1 3 mph 1016.6mb 55f 59f
8:36 3
mph
1016.6mb 55f 58f
8:30 2 3 mph 1016.6mb 55f 58f
8:24 2 3 mph 1016.7mb 55f 58f
8:18 3 5 mph 1016.7mb 55f 58f
8:12 3
mph
1016.7mb 55f 58f
8:06 3
mph
1016.7mb 55f 59f
8:00 1 2 mph 1016.8mb 55f 60f
7:54 2
mph
1016.8mb 55f 59f
7:48  -  2 mph 1016.8mb 55f 60f
7:36 2
mph
1016.7mb 55f 59f
7:30 1 2 mph 1016.7mb 55f 58f
7:24 1 3 mph 1016.6mb 55f 58f
7:18 2 3 mph 1016.6mb 55f 58f
7:12 2 5 mph 1016.6mb 55f 58f
7:06 2
mph
1016.6mb 55f 58f
7:00 2
mph
1016.7mb 55f 57f
6:54 2
mph
1016.6mb 55f 57f
6:48 2 3 mph 1016.7mb 55f 56f
6:36 1 2 mph 1016.7mb 55f 57f
6:30  -  2 mph 1016.7mb 55f 56f
6:24  -  2 mph 1016.6mb 55f 56f
6:18  -  mph 1016.6mb 55f 56f
6:12  -  1 mph 1016.5mb 55f 56f
6:06 1
mph
1016.5mb 55f 55f
6:00  -  1 mph 1016.5mb 55f 55f
5:54 1 2 mph 1016.4mb 55f 55f
5:48  -  2 mph 1016.5mb 55f 54f
5:36  -  1 mph 1016.6mb 55f 55f
5:30  -  1 mph 1016.6mb 55f 55f
5:24  -  1 mph 1016.6mb 55f 55f
5:18 1 2 mph 1016.6mb 55f 55f
5:12  -  1 mph 1016.6mb 55f 55f
5:06  -  mph 1016.6mb 55f 55f
5:00  -  2 mph 1016.7mb 55f 55f
4:54 2
mph
1016.7mb 55f 55f
4:48  -  2 mph 1016.7mb 55f 54f
4:36 1 2 mph 1016.7mb 55f 54f
4:30 2
mph
1016.7mb 55f 54f
4:24 2 5 mph 1016.7mb 55f 55f
4:18 1 5 mph 1016.7mb 55f 54f
4:12 3 5 mph 1016.7mb 55f 55f
4:06 2 3 mph 1016.7mb 55f 55f
4:00 3 5 mph 1016.7mb 55f 55f
3:54 3 5 mph 1016.7mb 55f 55f
3:48 3 5 mph 1016.8mb 55f 56f
3:36 3 5 mph 1016.8mb 55f 57f
3:30 2 5 mph 1016.8mb 55f 56f
3:24 3 6 mph 1016.7mb 55f 56f
3:18 3 5 mph 1016.7mb 55f 56f
3:12 3 6 mph 1016.7mb 55f 56f
3:06 5 6 mph 1016.7mb 55f 56f
3:00 3 6 mph 1016.7mb 55f 56f
2:54 5 6 mph 1016.7mb 55f 56f
2:48 5 6 mph 1016.7mb 55f 56f
2:36 3
mph
1016.7mb 55f 56f
2:30 2 3 mph 1016.7mb 55f 55f
2:24 3 5 mph 1016.7mb 55f 55f
2:18 5
mph
1016.8mb 55f 55f
2:12 2 3 mph 1016.8mb 55f 55f
2:06 3 5 mph 1016.7mb 55f 55f
2:00 3
mph
1016.7mb 55f 55f
1:54 2 3 mph 1016.7mb 55f 56f
1:48 2 3 mph 1016.6mb 55f 56f
1:36 3
mph
1016.7mb 55f 56f
1:30 5
mph
1016.7mb 55f 56f
1:24 3 5 mph 1016.7mb 55f 56f
1:18 3
mph
1016.7mb 55f 57f
1:12 1 2 mph 1016.8mb 55f 57f
1:06  -  2 mph 1016.8mb 55f 57f
1:00 3 5 mph 1016.8mb 55f 57f
12:54 3 5 mph 1016.9mb 55f 57f
12:48 1 2 mph 1016.9mb 55f 58f
12:36 1 3 mph 1016.9mb 55f 58f
12:30 1 5 mph 1016.9mb 55f 58f
12:24 2 5 mph 1016.9mb 55f 58f
12:18 2 5 mph 1016.9mb 55f 58f
12:12 3 6 mph 1016.9mb 55f 58f
12:06 2 5 mph 1017mb 55f 58f
12:00 1 2 mph 1017mb 55f 58f
Do 07/28 11:54 1 2 mph 1016.9mb 55f 58f
11:48 2 5 mph 1016.9mb 55f 58f
11:36 2 3 mph 1016.9mb 55f 58f
11:30 2 6 mph 1016.9mb 55f 58f
11:24 5 6 mph 1016.9mb 55f 58f
11:18 6
mph
1016.8mb 55f 58f
11:12 5 6 mph 1016.9mb 55f 58f
11:06 5 6 mph 1016.8mb 55f 58f
11:00 3 6 mph 1016.8mb 55f 58f
10:54 5 6 mph 1016.8mb 55f 58f
10:48 5 6 mph 1016.8mb 55f 58f
10:36 3 6 mph 1016.8mb 55f 59f
10:30 5 6 mph 1016.9mb 55f 59f
10:24 3 5 mph 1016.9mb 55f 60f
10:18 3 5 mph 1017mb 55f 60f
10:12 2 5 mph 1017mb 55f 60f
10:06  -  1 mph 1017mb 55f 60f
10:00 1 2 mph 1017mb 55f 59f
9:54 3 5 mph 1017mb 55f 59f
9:48 5 6 mph 1017mb 55f 60f
9:36 2 3 mph 1016.9mb 55f 61f
9:30 2
mph
1016.8mb 55f 62f
9:24 2 3 mph 1016.8mb 55f 62f
9:18 2 5 mph 1016.7mb 55f 63f
9:12 1 6 mph 1016.7mb 55f 66f
9:06 5 6 mph 1016.6mb 55f 66f
9:00 6 7 mph 1016.6mb 55f 66f
8:54 5 6 mph 1016.6mb 55f 67f
8:48 3 5 mph 1016.6mb 55f 67f
8:36 3
mph
1016.6mb 55f 68f
8:30 2 3 mph 1016.6mb 55f 65f
8:24  -  2 mph 1016.7mb 55f 63f
8:18 1 2 mph 1016.7mb 55f 63f
8:12 1 3 mph 1016.8mb 55f 63f
8:06  -  1 mph 1016.8mb 55f 64f
8:00  -  1 mph 1016.8mb 55f 63f
7:36 2 3 mph 1016.9mb 55f 62f
7:30  -  2 mph 1016.9mb 55f 64f
7:24 1 2 mph 1016.9mb 55f 66f
7:18 1 2 mph 1016.9mb 55f 68f
7:12 1
mph
1017mb 55f 67f
7:06  -  2 mph 1017mb 55f 67f
7:00 1 2 mph 1017mb 55f 67f
6:54 2
mph
1017mb 55f 66f
6:48 2 3 mph 1017mb 55f 66f
6:36 1 2 mph 1017.1mb 55f 67f
6:30  -  2 mph 1017.1mb 55f 68f
6:24 1 2 mph 1017.2mb 55f 69f
6:18  -  3 mph 1017.2mb 55f 70f
6:12  -  1 mph 1017.3mb 55f 71f
6:06 1 3 mph 1017.3mb 55f 74f
6:00  -  3 mph 1017.3mb 55f 75f
5:54 1 6 mph 1017.4mb 55f 76f
5:48 5 6 mph 1017.4mb 55f 76f
5:36 2 6 mph 1017.5mb 55f 76f
5:30 2 8 mph 1017.5mb 55f 76f
5:24 3 8 mph 1017.6mb 55f 76f
5:18 5 8 mph 1017.6mb 55f 75f
5:12 3 7 mph 1017.8mb 55f 76f
5:06 3 6 mph 1017.8mb 55f 76f
5:00 3 5 mph 1017.8mb 55f 75f
4:54 2 5 mph 1017.9mb 55f 75f
4:48 2 5 mph 1017.9mb 55f 76f
4:36 1 6 mph 1018mb 54f 75f
4:30 1 5 mph 1018.2mb 54f 75f
4:24 3 7 mph 1018.2mb 54f 75f
4:18 3 6 mph 1018.2mb 54f 74f
4:12 5 7 mph 1018.2mb 54f 74f
4:06 2 6 mph 1018.3mb 54f 74f
4:00 3 8 mph 1018.4mb 54f 75f
3:54 2 7 mph 1018.5mb 54f 74f
3:48 5 8 mph 1018.5mb 55f 73f
3:36 2 8 mph 1018.6mb 54f 73f
3:30 6 9 mph 1018.6mb 54f 73f
3:24 6 10 mph 1018.7mb 54f 73f
3:18 5 11 mph 1018.7mb 54f 72f
3:12 6 9 mph 1018.8mb 54f 73f
3:06 6 10 mph 1018.8mb 55f 74f
3:00 2 10 mph 1018.9mb 55f 74f
2:54 6 10 mph 1018.9mb 55f 74f
2:48 6 11 mph 1018.9mb 55f 74f
2:36 6 9 mph 1019mb 54f 74f
2:30 7 11 mph 1019mb 54f 74f
2:24 8 11 mph 1019.1mb 55f 73f
2:18 9 14 mph 1019.2mb 55f 74f
2:12 6 9 mph 1019.3mb 55f 74f
2:06 1 5 mph 1019.3mb 55f 76f
2:00 2 6 mph 1019.4mb 55f 75f
1:54 2 8 mph 1019.4mb 54f 74f
1:48 3 6 mph 1019.5mb 54f 75f
1:36 5 9 mph 1019.6mb 54f 74f
1:30 3 8 mph 1019.7mb 53f 74f
1:24 3 6 mph 1019.8mb 53f 75f
1:18 3 8 mph 1019.8mb 52f 74f
1:12 6 10 mph 1019.8mb 52f 73f
1:06 6 9 mph 1019.9mb 52f 73f
1:00 8 11 mph 1019.9mb 52f 72f
12:54 9 11 mph 1019.9mb 52f 72f
12:48 5 10 mph 1020mb 52f 73f
12:36 7 9 mph 1020mb 52f 71f
12:30 8 10 mph 1020mb 52f 71f
12:24 7 9 mph 1020.1mb 53f 71f
12:18 8 10 mph 1020mb 53f 71f
12:12 8 10 mph 1020mb 53f 71f
12:06 5 7 mph 1020mb 52f 71f
12:00 5 7 mph 1020.1mb 52f 71f
11:54 5 9 mph 1020.2mb 52f 70f
11:48 3 9 mph 1020.3mb 52f 71f
11:36 5 8 mph 1020.3mb 52f 70f
11:30 6 7 mph 1020.3mb 52f 70f
11:24 2 6 mph 1020.4mb 52f 70f
11:18 3 8 mph 1020.3mb 52f 70f
11:12 5 10 mph 1020.4mb 52f 69f
11:06 6 9 mph 1020.4mb 53f 70f
11:00 6 9 mph 1020.4mb 53f 69f
10:54 8 10 mph 1020.5mb 53f 68f
10:48 7 10 mph 1020.5mb 52f 68f
10:36 8 11 mph 1020.5mb 53f 68f
10:30 8 13 mph 1020.4mb 53f 68f
10:24 8 11 mph 1020.4mb 53f 68f
10:18 6 9 mph 1020.5mb 53f 68f
10:12 7 11 mph 1020.5mb 54f 67f
10:06 8 11 mph 1020.5mb 54f 65f
10:00 3 5 mph 1020.6mb 54f 62f
9:54 3 5 mph 1020.6mb 54f 58f
9:48 5 6 mph 1020.6mb 54f 58f
9:36 3 5 mph 1020.6mb 53f 58f
9:30 3 5 mph 1020.7mb 53f 56f
9:24 3
mph
1020.7mb 53f 57f
9:18 2 3 mph 1020.6mb 53f 57f
9:12 3
mph
1020.6mb 53f 58f
9:06 2 3 mph 1020.6mb 54f 57f
9:00 3 5 mph 1020.6mb 54f 56f
8:36 2 3 mph 1020.6mb 53f 57f
8:30 2
mph
1020.7mb 53f 58f
8:24  -  1 mph 1020.6mb 53f 59f
8:18  -  1 mph 1020.7mb 53f 58f
8:12 1
mph
1020.7mb 53f 57f
8:06 1 2 mph 1020.7mb 53f 57f
8:00  -  1 mph 1020.7mb 53f 57f
7:54  -  2 mph 1020.8mb 53f 57f
7:48 2
mph
1020.8mb 53f 56f
7:36 3
mph
1020.8mb 53f 55f
7:30 2 3 mph 1020.7mb 53f 55f
7:24 1 5 mph 1020.7mb 53f 55f
7:18 3 5 mph 1020.7mb 53f 55f
7:12 3 5 mph 1020.6mb 53f 55f
7:06 3 5 mph 1020.6mb 53f 54f
7:00 3 5 mph 1020.6mb 53f 54f
6:54 3 5 mph 1020.6mb 53f 53f
6:48 2 3 mph 1020.5mb 53f 54f
6:36 3 5 mph 1020.4mb 53f 54f
6:30 3 5 mph 1020.4mb 53f 54f
6:24 5
mph
1020.4mb 53f 53f
6:18 5
mph
1020.4mb 53f 53f
6:12 3 5 mph 1020.3mb 53f 54f
6:06 3 6 mph 1020.3mb 53f 53f
6:00 2 5 mph 1020.2mb 53f 54f
5:54 3 5 mph 1020.3mb 53f 54f
5:48 3 6 mph 1020.3mb 53f 54f
5:36 3 6 mph 1020.2mb 53f 53f
5:30 2 6 mph 1020.1mb 53f 54f
5:24 5 7 mph 1020mb 53f 54f
5:18 3 7 mph 1020mb 53f 53f
5:12 6 7 mph 1020mb 53f 53f
5:06 3 6 mph 1020mb 53f 54f
5:00 2 5 mph 1019.9mb 53f 54f
4:54 2 5 mph 1020mb 53f 54f
4:48 2 3 mph 1019.9mb 53f 54f
4:36 2 5 mph 1019.9mb 53f 54f
4:30 2 3 mph 1019.9mb 53f 54f
4:24 2 5 mph 1019.8mb 53f 54f
4:18 3 5 mph 1019.9mb 53f 54f
4:12 2 3 mph 1019.9mb 53f 54f
4:06 2 3 mph 1019.9mb 53f 54f
4:00 2 3 mph 1019.9mb 53f 54f
3:54 2 3 mph 1019.9mb 53f 53f
3:48 1 3 mph 1020mb 53f 54f
3:36 1 3 mph 1019.9mb 53f 53f
3:30 2 3 mph 1019.9mb 53f 53f
3:24 2 3 mph 1019.9mb 53f 53f
3:18 2
mph
1019.9mb 53f 53f
3:12  -  1 mph 1019.9mb 53f 54f
3:06  -  2 mph 1019.8mb 53f 54f
3:00  -  2 mph 1019.8mb 53f 55f
2:54  -  1 mph 1019.7mb 53f 54f
2:48 1 2 mph 1019.7mb 53f 54f
2:36 3
mph
1019.6mb 53f 53f
2:30 1 2 mph 1019.5mb 53f 54f
2:24  -  3 mph 1019.5mb 53f 54f
2:18 2 3 mph 1019.5mb 53f 55f
2:12 1 3 mph 1019.5mb 53f 55f
2:06 2 3 mph 1019.5mb 53f 54f
2:00 1 3 mph 1019.5mb 53f 54f
1:54 2 3 mph 1019.6mb 53f 55f
1:48 1 2 mph 1019.6mb 53f 55f
1:36  -  2 mph 1019.6mb 53f 55f
1:30  -  1 mph 1019.6mb 53f 55f
1:24 1 2 mph 1019.6mb 53f 55f
1:18  -  1 mph 1019.7mb 53f 54f
1:12  -  2 mph 1019.7mb 53f 54f
1:06  -  1 mph 1019.8mb 53f 55f
1:00  -  1 mph 1019.8mb 53f 55f
12:54  -  2 mph 1019.8mb 53f 55f
12:48  -  1 mph 1019.9mb 53f 54f
12:36  -  2 mph 1019.8mb 53f 54f
12:30 1 3 mph 1019.8mb 53f 54f
12:24 2 6 mph 1019.8mb 53f 54f
12:18 5 6 mph 1019.8mb 53f 54f
12:12 6 7 mph 1019.8mb 53f 54f
12:06 5 6 mph 1019.7mb 53f 55f
12:00 5 6 mph 1019.7mb 53f 55f
Mi 07/27 11:54 5 6 mph 1019.7mb 53f 55f
11:48 2 5 mph 1019.7mb 53f 55f
11:36 3 6 mph 1019.7mb 53f 55f
11:30 5 6 mph 1019.7mb 53f 55f
11:24 5 7 mph 1019.7mb 53f 55f
11:18 5 7 mph 1019.7mb 53f 55f
11:12 6
mph
1019.7mb 53f 55f
11:06 6 7 mph 1019.7mb 53f 56f
11:00 7
mph
1019.7mb 53f 56f
10:54 6 7 mph 1019.6mb 53f 56f
10:48 6 7 mph 1019.6mb 53f 56f
10:36 5 7 mph 1019.5mb 53f 56f
10:30 6 7 mph 1019.5mb 53f 56f
10:24 5 6 mph 1019.4mb 53f 56f
10:18 5 7 mph 1019.4mb 53f 57f
10:12 6 7 mph 1019.3mb 53f 57f
10:06 6 7 mph 1019.3mb 53f 57f
10:00 5 6 mph 1019.2mb 53f 57f
9:54 3 7 mph 1019.2mb 53f 57f
9:48 7
mph
1019.1mb 53f 57f
9:36 5 6 mph 1019.1mb 53f 58f
9:30 5
mph
1019mb 53f 58f
9:24 5 6 mph 1019mb 53f 58f
9:18 6 7 mph 1018.8mb 53f 58f
9:12 6
mph
1018.8mb 53f 59f
9:06 6
mph
1018.7mb 53f 59f
9:00 6
mph
1018.7mb 53f 59f
8:54 6
mph
1018.7mb 53f 60f
8:48 6
mph
1018.7mb 53f 60f
8:36 6 7 mph 1018.6mb 53f 60f
8:30 6 7 mph 1018.5mb 53f 62f
8:24 5 6 mph 1018.5mb 53f 62f
8:18 2 5 mph 1018.5mb 53f 63f
8:12 2 5 mph 1018.5mb 53f 63f
8:06 2 5 mph 1018.5mb 53f 63f
8:00  -  1 mph 1018.5mb 53f 63f
7:54 2 3 mph 1018.5mb 53f 62f
7:48 2 3 mph 1018.5mb 53f 63f
7:36 2 3 mph 1018.5mb 53f 63f
7:30 3 5 mph 1018.5mb 53f 62f
7:24 5 6 mph 1018.4mb 53f 61f
7:18 5
mph
1018.4mb 53f 63f
7:12 2 3 mph 1018.5mb 53f 65f
7:06 2 5 mph 1018.5mb 53f 69f
7:00 5 8 mph 1018.6mb 53f 69f
6:54 9 10 mph 1018.6mb 53f 69f
6:48 9 11 mph 1018.6mb 53f 69f
6:36 9 11 mph 1018.6mb 53f 69f
6:30 11 13 mph 1018.7mb 53f 69f
6:24 13 14 mph 1018.7mb 53f 69f
6:18 10 13 mph 1018.6mb 53f 71f
6:12 8 10 mph 1018.6mb 53f 71f
6:06 8 9 mph 1018.7mb 53f 71f
6:00 7 8 mph 1018.7mb 53f 71f
5:54 1 5 mph 1018.8mb 53f 72f
5:48 1 3 mph 1018.8mb 53f 71f
5:36 2 3 mph 1018.8mb 53f 71f
5:30 2 5 mph 1018.8mb 53f 74f
5:24 3 5 mph 1018.8mb 53f 74f
5:18 3 5 mph 1018.8mb 53f 74f
5:12 3 5 mph 1018.8mb 53f 74f
5:06 3 5 mph 1018.8mb 53f 74f
5:00 5 6 mph 1018.9mb 53f 74f
4:54 5 6 mph 1018.8mb 53f 74f
4:48 3 6 mph 1018.8mb 53f 73f
4:36 5 6 mph 1018.9mb 53f 74f
4:30 2 7 mph 1018.9mb 53f 74f
4:24 5 6 mph 1019mb 53f 74f
4:18 5 7 mph 1019mb 54f 73f
4:12 3 7 mph 1018.9mb 54f 74f
4:06 3 7 mph 1019mb 54f 74f
4:00 5 7 mph 1019mb 53f 73f
3:54 6 8 mph 1019mb 53f 73f
3:48 5 7 mph 1019.1mb 53f 74f
3:36 7 10 mph 1019.2mb 53f 73f
3:30 7 9 mph 1019.3mb 53f 73f
3:24 7 11 mph 1019.4mb 53f 72f
3:18 7 10 mph 1019.5mb 53f 72f
3:12 7 11 mph 1019.5mb 53f 72f
3:06 8 11 mph 1019.5mb 53f 72f
3:00 8 13 mph 1019.5mb 53f 71f
2:54 9 13 mph 1019.6mb 52f 71f
2:48 10 13 mph 1019.7mb 52f 71f
2:36 7 11 mph 1019.7mb 52f 71f
2:30 9 11 mph 1019.8mb 52f 71f
2:24 9 13 mph 1019.8mb 52f 71f
2:18 9 13 mph 1019.8mb 52f 71f
2:12 10 14 mph 1019.9mb 52f 71f
2:06 9 13 mph 1020mb 52f 71f
2:00 11 14 mph 1020mb 52f 71f
1:54 11 14 mph 1020.1mb 52f 70f
1:48 8 11 mph 1020.2mb 52f 71f
1:36 6 11 mph 1020.3mb 52f 72f
1:30 6 11 mph 1020.2mb 52f 71f
1:24 5 9 mph 1020.3mb 52f 71f
1:18 5 9 mph 1020.3mb 52f 71f
1:12 5 8 mph 1020.3mb 52f 72f
1:06 2 7 mph 1020.4mb 52f 72f
1:00 2 7 mph 1020.4mb 52f 71f
12:36 8 10 mph 1020.5mb 52f 70f
12:30 7 9 mph 1020.5mb 52f 70f
12:24 3 9 mph 1020.5mb 52f 70f
12:18 6 8 mph 1020.5mb 52f 70f
12:12 6 8 mph 1020.5mb 52f 70f
12:06 3 7 mph 1020.6mb 52f 69f
12:00 3 9 mph 1020.6mb 52f 69f
11:54 8 9 mph 1020.6mb 52f 68f
11:48 7 9 mph 1020.6mb 52f 68f
11:36 6 10 mph 1020.6mb 52f 69f
11:30 5 9 mph 1020.6mb 52f 68f
11:24 6 10 mph 1020.6mb 52f 68f
11:18 6 7 mph 1020.6mb 52f 68f
11:12 6 10 mph 1020.6mb 52f 68f
11:06 7 11 mph 1020.6mb 52f 68f
11:00 6 9 mph 1020.7mb 52f 68f
10:54 5 11 mph 1020.7mb 52f 67f
10:48 2 6 mph 1020.8mb 52f 62f
10:36 3 5 mph 1020.9mb 52f 59f
10:30 3 5 mph 1020.9mb 52f 60f
10:24 3 5 mph 1020.9mb 52f 60f
10:18 3 5 mph 1021mb 52f 60f
10:12 2 3 mph 1021mb 52f 59f